createdAt,value
2017-07-03T00:00:57.886Z,15.20
2017-07-03T00:03:25.351Z,15.20
2017-07-03T00:05:52.821Z,15.20
2017-07-03T00:08:20.270Z,15.20
2017-07-03T00:10:47.834Z,15.20
2017-07-03T00:13:15.294Z,15.30
2017-07-03T00:15:43.524Z,15.40
2017-07-03T00:18:10.990Z,15.40
2017-07-03T00:20:38.451Z,15.50
2017-07-03T00:23:05.906Z,15.50
2017-07-03T00:25:33.364Z,15.50
2017-07-03T00:28:00.939Z,15.50
2017-07-03T00:30:28.401Z,15.50
2017-07-03T00:32:55.858Z,15.40
2017-07-03T00:35:23.319Z,15.50
2017-07-03T00:37:51.585Z,15.40
2017-07-03T00:40:19.760Z,15.40
2017-07-03T00:42:47.223Z,15.40
2017-07-03T00:45:15.499Z,15.30
2017-07-03T00:47:43.722Z,15.30
2017-07-03T00:50:11.186Z,15.30
2017-07-03T00:52:38.650Z,15.30
2017-07-03T00:55:06.113Z,15.30
2017-07-03T00:57:33.575Z,15.40
2017-07-03T01:00:01.037Z,15.40
2017-07-03T01:02:28.494Z,15.40
2017-07-03T01:04:55.954Z,15.40
2017-07-03T01:07:23.423Z,15.40
2017-07-03T01:09:50.873Z,15.40
2017-07-03T01:12:18.330Z,15.30
2017-07-03T01:14:45.795Z,15.30
2017-07-03T01:17:14.026Z,15.40
2017-07-03T01:19:41.487Z,15.40
2017-07-03T01:22:08.959Z,15.40
2017-07-03T01:24:36.417Z,15.50
2017-07-03T01:27:03.887Z,15.50
2017-07-03T01:29:31.342Z,15.50
2017-07-03T01:31:58.811Z,15.30
2017-07-03T01:34:26.266Z,15.30
2017-07-03T01:36:54.515Z,15.30
2017-07-03T01:39:21.974Z,15.30
2017-07-03T01:41:49.541Z,15.40
2017-07-03T01:44:16.999Z,15.40
2017-07-03T01:46:44.507Z,15.30
2017-07-03T01:49:12.719Z,15.30
2017-07-03T01:51:40.279Z,15.20
2017-07-03T01:54:07.737Z,15.20
2017-07-03T01:56:35.207Z,15.10
2017-07-03T01:59:02.678Z,15.10
2017-07-03T02:01:30.894Z,15.30
2017-07-03T02:03:58.511Z,15.30
2017-07-03T02:06:26.059Z,15.30
2017-07-03T02:08:54.386Z,15.20
2017-07-03T02:11:22.463Z,15.30
2017-07-03T02:13:50.022Z,15.30
2017-07-03T02:16:22.908Z,15.30
2017-07-03T02:18:51.123Z,15.40
2017-07-03T02:21:20.546Z,15.40
2017-07-03T02:23:50.527Z,15.40
2017-07-03T02:26:22.971Z,15.30
2017-07-03T02:28:52.697Z,15.30
2017-07-03T02:31:20.548Z,15.20
2017-07-03T02:33:49.740Z,15.10
2017-07-03T02:36:17.549Z,15.10
2017-07-03T02:38:45.015Z,15.10
2017-07-03T02:41:12.556Z,15.10
2017-07-03T02:43:40.027Z,15.00
2017-07-03T02:46:08.259Z,15.20
2017-07-03T02:48:35.756Z,15.20
2017-07-03T02:51:03.307Z,15.20
2017-07-03T02:53:30.774Z,15.20
2017-07-03T02:55:58.234Z,15.20
2017-07-03T02:58:26.502Z,15.20
2017-07-03T03:00:53.963Z,15.10
2017-07-03T03:03:21.514Z,15.00
2017-07-03T03:05:48.978Z,14.90
2017-07-03T03:08:17.239Z,14.90
2017-07-03T03:10:44.688Z,14.90
2017-07-03T03:13:12.134Z,14.90
2017-07-03T03:15:39.607Z,14.90
2017-07-03T03:18:07.514Z,14.90
2017-07-03T03:20:34.978Z,14.80
2017-07-03T03:23:02.435Z,14.80
2017-07-03T03:25:29.902Z,14.80
2017-07-03T03:27:57.363Z,14.80
2017-07-03T03:30:24.835Z,14.80
2017-07-03T03:32:52.289Z,14.80
2017-07-03T03:35:19.759Z,14.70
2017-07-03T03:37:47.214Z,14.70
2017-07-03T03:40:14.679Z,14.80
2017-07-03T03:42:42.280Z,14.80
2017-07-03T03:45:09.735Z,14.90
2017-07-03T03:47:37.198Z,14.90
2017-07-03T03:50:04.715Z,14.90
2017-07-03T03:52:32.179Z,15.00
2017-07-03T03:54:59.647Z,15.10
2017-07-03T03:57:27.875Z,15.10
2017-07-03T03:59:55.330Z,15.10
2017-07-03T04:02:22.811Z,15.20
2017-07-03T04:04:50.268Z,15.20
2017-07-03T04:07:17.731Z,15.30
2017-07-03T04:09:45.199Z,15.30
2017-07-03T04:12:12.657Z,15.30
2017-07-03T04:14:40.119Z,15.40
2017-07-03T04:17:08.342Z,15.50
2017-07-03T04:19:35.816Z,15.50
2017-07-03T04:22:03.262Z,15.70
2017-07-03T04:24:30.731Z,15.70
2017-07-03T04:26:58.186Z,15.80
2017-07-03T04:29:25.652Z,15.90
2017-07-03T07:32:35.850Z,19.30
2017-07-03T07:35:03.329Z,19.30
2017-07-03T07:37:31.594Z,19.30
2017-07-03T07:39:59.055Z,19.30
2017-07-03T07:42:26.517Z,19.70
2017-07-03T07:44:54.828Z,20.20
2017-07-03T07:47:23.035Z,20.20
2017-07-03T07:49:50.495Z,20.10
2017-07-03T07:52:17.955Z,20.40
2017-07-03T07:54:45.411Z,20.50
2017-07-03T07:57:12.870Z,20.20
2017-07-03T07:59:40.326Z,20.60
2017-07-03T08:02:07.795Z,20.90
2017-07-03T08:04:36.281Z,20.60
2017-07-03T08:07:03.744Z,20.30
2017-07-03T08:09:31.211Z,20.80
2017-07-03T08:11:59.467Z,20.80
2017-07-03T08:14:26.937Z,20.80
2017-07-03T08:16:55.165Z,21.30
2017-07-03T08:19:22.627Z,21.20
2017-07-03T08:21:50.111Z,21.60
2017-07-03T08:24:17.565Z,21.70
2017-07-03T08:26:45.023Z,21.50
2017-07-03T08:29:12.498Z,21.10
2017-07-03T08:31:40.730Z,20.90
2017-07-03T08:34:08.189Z,20.90
2017-07-03T08:36:35.651Z,20.60
2017-07-03T08:39:03.106Z,20.50
2017-07-03T08:41:30.567Z,20.70
2017-07-03T08:43:58.031Z,21.10
2017-07-03T08:46:25.499Z,21.80
2017-07-03T08:48:52.950Z,22.20
2017-07-03T08:51:20.410Z,21.50
2017-07-03T08:53:47.966Z,20.90
2017-07-03T08:56:15.423Z,20.50
2017-07-03T08:58:42.891Z,20.60
2017-07-03T09:01:11.111Z,21.40
2017-07-03T09:03:38.612Z,21.40
2017-07-03T09:06:06.062Z,21.20
2017-07-03T09:08:33.522Z,21.50
2017-07-03T09:11:01.079Z,21.60
2017-07-03T09:13:28.542Z,21.70
2017-07-03T09:15:56.100Z,21.30
2017-07-03T09:18:23.570Z,21.20
2017-07-03T09:20:51.817Z,21.40
2017-07-03T09:23:19.266Z,21.40
2017-07-03T09:25:46.728Z,21.40
2017-07-03T09:28:14.296Z,21.20
2017-07-03T09:30:41.847Z,21.10
2017-07-03T09:33:09.301Z,21.70
2017-07-03T09:35:36.755Z,21.60
2017-07-03T09:38:04.222Z,21.80
2017-07-03T09:40:31.680Z,21.90
2017-07-03T09:42:59.147Z,22.20
2017-07-03T09:45:26.603Z,21.70
2017-07-03T09:47:54.083Z,22.20
2017-07-03T09:50:21.534Z,22.50
2017-07-03T09:52:49.747Z,22.40
2017-07-03T09:55:17.211Z,22.40
2017-07-03T09:57:44.664Z,22.90
2017-07-03T10:00:12.130Z,23.10
2017-07-03T10:02:39.593Z,22.70
2017-07-03T10:05:07.046Z,22.50
2017-07-03T10:07:34.507Z,22.30
2017-07-03T10:10:01.981Z,22.60
2017-07-03T10:12:29.446Z,22.60
2017-07-03T10:14:56.904Z,22.50
2017-07-03T10:17:24.356Z,22.60
2017-07-03T10:19:51.906Z,23.10
2017-07-03T10:22:19.362Z,23.40
2017-07-03T10:24:46.820Z,23.60
2017-07-03T10:27:14.366Z,23.30
2017-07-03T10:29:41.818Z,23.40
2017-07-03T10:32:09.299Z,23.30
2017-07-03T10:34:36.751Z,23.70
2017-07-03T10:37:04.299Z,23.60
2017-07-03T10:39:31.769Z,23.60
2017-07-03T10:41:59.218Z,23.70
2017-07-03T10:44:26.683Z,23.90
2017-07-03T10:46:54.138Z,23.70
2017-07-03T10:49:21.602Z,23.50
2017-07-03T10:51:50.434Z,23.30
2017-07-03T10:54:17.895Z,23.30
2017-07-03T10:56:45.359Z,23.50
2017-07-03T10:59:12.828Z,23.40
2017-07-03T11:01:40.287Z,23.70
2017-07-03T11:04:07.765Z,23.70
2017-07-03T11:06:35.226Z,23.50
2017-07-03T11:09:03.453Z,23.10
2017-07-03T11:11:30.942Z,23.10
2017-07-03T11:13:58.397Z,23.00
2017-07-03T11:16:25.859Z,22.60
2017-07-03T11:18:53.336Z,23.00
2017-07-03T11:21:21.586Z,23.20
2017-07-03T11:23:49.042Z,23.20
2017-07-03T11:26:16.805Z,23.40
2017-07-03T11:28:47.379Z,23.50
2017-07-03T11:31:22.629Z,23.40
2017-07-03T11:33:52.793Z,23.20
2017-07-03T11:36:25.631Z,23.30
2017-07-03T11:38:57.375Z,23.40
2017-07-03T11:41:24.832Z,23.40
2017-07-03T11:43:52.290Z,23.60
2017-07-03T11:46:19.822Z,23.30
2017-07-03T11:48:48.034Z,23.40
2017-07-03T11:51:15.882Z,23.40
2017-07-03T11:53:45.765Z,23.00
2017-07-03T11:56:13.218Z,22.90
2017-07-03T11:58:43.743Z,22.90
2017-07-03T12:01:11.186Z,22.90
2017-07-03T12:03:38.673Z,23.20
2017-07-03T12:06:08.614Z,23.50
2017-07-03T12:08:38.642Z,23.40
2017-07-03T12:11:06.091Z,23.70
2017-07-03T12:13:33.656Z,23.90
2017-07-03T12:16:03.156Z,24.20
2017-07-03T12:18:30.730Z,24.30
2017-07-03T12:20:58.178Z,24.40
2017-07-03T12:23:25.671Z,24.00
2017-07-03T12:25:53.132Z,23.80
2017-07-03T12:28:20.583Z,23.80
2017-07-03T12:30:48.610Z,23.80
2017-07-03T12:33:16.404Z,24.20
2017-07-03T12:35:45.367Z,24.40
2017-07-03T12:38:13.873Z,24.30
2017-07-03T12:40:42.897Z,24.10
2017-07-03T12:43:11.444Z,24.20
2017-07-03T12:45:38.920Z,24.40
2017-07-03T12:48:06.375Z,24.50
2017-07-03T12:50:33.843Z,24.40
2017-07-03T12:53:01.386Z,24.50
2017-07-03T12:55:28.844Z,24.50
2017-07-03T12:57:56.407Z,24.50
2017-07-03T13:00:23.864Z,24.70
2017-07-03T13:02:52.538Z,24.90
2017-07-03T13:05:20.108Z,25.10
2017-07-03T13:07:49.028Z,25.20
2017-07-03T13:10:16.486Z,25.00
2017-07-03T13:12:43.940Z,25.00
2017-07-03T13:15:11.393Z,24.90
2017-07-03T13:17:42.875Z,24.80
2017-07-03T13:20:10.987Z,24.80
2017-07-03T13:22:41.579Z,24.60
2017-07-03T13:25:09.082Z,25.00
2017-07-03T13:27:37.838Z,25.20
2017-07-03T13:30:06.791Z,24.70
2017-07-03T13:32:38.714Z,24.20
2017-07-03T13:35:06.171Z,24.40
2017-07-03T13:37:34.245Z,24.60
2017-07-03T13:40:02.485Z,25.20
2017-07-03T13:42:29.963Z,25.20
2017-07-03T13:44:57.428Z,25.40
2017-07-03T13:47:24.993Z,25.20
2017-07-03T13:49:52.554Z,25.10
2017-07-03T13:52:20.022Z,25.10
2017-07-03T13:54:48.943Z,25.00
2017-07-03T13:57:17.424Z,25.00
2017-07-03T13:59:44.881Z,24.70
2017-07-03T14:02:13.328Z,24.70
2017-07-03T14:04:41.550Z,25.20
2017-07-03T14:07:09.163Z,25.20
2017-07-03T14:09:37.383Z,25.10
2017-07-03T14:12:04.847Z,25.10
2017-07-03T14:14:32.295Z,25.20
2017-07-03T14:16:59.845Z,25.10
2017-07-03T14:19:29.774Z,25.30
2017-07-03T14:21:57.279Z,25.40
2017-07-03T14:24:25.490Z,25.30
2017-07-03T14:26:54.699Z,25.30
2017-07-03T14:29:22.150Z,25.60
2017-07-03T14:31:49.602Z,25.60
2017-07-03T14:34:17.064Z,25.50
2017-07-03T14:36:44.514Z,25.30
2017-07-03T14:39:11.977Z,25.40
2017-07-03T14:41:39.466Z,25.60
2017-07-03T14:44:11.828Z,25.10
2017-07-03T14:46:39.275Z,24.70
2017-07-03T14:49:07.662Z,24.70
2017-07-03T14:54:10.674Z,25.50
2017-07-03T14:56:40.142Z,25.50
2017-07-03T14:59:10.360Z,25.80
2017-07-03T15:01:42.694Z,25.70
2017-07-03T15:04:10.928Z,25.80
2017-07-03T15:06:38.991Z,25.80
2017-07-03T15:09:10.931Z,25.70
2017-07-03T15:11:39.654Z,25.60
2017-07-03T15:14:07.222Z,25.70
2017-07-03T15:16:36.436Z,25.30
2017-07-03T15:19:06.493Z,25.40
2017-07-03T15:21:34.402Z,25.40
2017-07-03T15:24:02.822Z,25.50
2017-07-03T15:26:31.038Z,25.60
2017-07-03T15:28:58.493Z,25.60
2017-07-03T15:31:28.086Z,25.90
2017-07-03T15:33:55.538Z,26.00
2017-07-03T15:36:23.000Z,25.70
2017-07-03T15:38:50.458Z,25.20
2017-07-03T15:41:18.018Z,25.00
2017-07-03T15:43:45.482Z,25.00
2017-07-03T15:46:12.939Z,25.50
2017-07-03T15:48:40.515Z,25.80
2017-07-03T15:51:07.980Z,25.70
2017-07-03T15:53:35.439Z,25.40
2017-07-03T15:56:02.898Z,25.70
2017-07-03T15:58:30.358Z,25.80
2017-07-03T16:00:58.587Z,25.90
2017-07-03T16:03:26.065Z,25.80
2017-07-03T16:05:53.517Z,26.10
2017-07-03T16:08:20.980Z,25.90
2017-07-03T16:10:48.426Z,25.80
2017-07-03T16:13:15.914Z,25.60
2017-07-03T16:15:43.535Z,25.10
2017-07-03T16:18:11.006Z,24.70
2017-07-03T16:20:38.466Z,24.80
2017-07-03T16:23:06.102Z,25.00
2017-07-03T16:25:33.591Z,25.50
2017-07-03T16:28:01.048Z,25.70
2017-07-03T16:30:28.601Z,26.00
2017-07-03T16:32:56.167Z,25.80
2017-07-03T16:35:23.627Z,25.00
2017-07-03T16:37:51.178Z,24.50
2017-07-03T16:40:18.642Z,24.30
2017-07-03T16:42:46.101Z,24.10
2017-07-03T16:45:13.647Z,24.20
2017-07-03T16:47:41.576Z,24.60
2017-07-03T16:50:11.641Z,24.60
2017-07-03T16:52:39.108Z,24.80
2017-07-03T16:55:07.747Z,25.40
2017-07-03T16:57:35.215Z,25.40
2017-07-03T17:00:03.491Z,25.80
2017-07-03T17:02:32.594Z,26.20
2017-07-03T17:05:00.064Z,26.30
2017-07-03T17:07:31.768Z,26.40
2017-07-03T17:09:59.281Z,25.80
2017-07-03T17:12:26.737Z,25.50
2017-07-03T17:14:55.925Z,25.20
2017-07-03T17:17:26.203Z,25.20
2017-07-03T17:19:53.657Z,24.90
2017-07-03T17:22:21.124Z,24.70
2017-07-03T17:24:48.578Z,24.70
2017-07-03T17:27:16.034Z,25.20
2017-07-03T17:29:44.010Z,25.10
2017-07-03T17:32:12.706Z,24.80
2017-07-03T17:34:40.167Z,24.80
2017-07-03T17:37:07.618Z,24.50
2017-07-03T17:39:35.188Z,24.40
2017-07-03T17:42:02.652Z,24.20
2017-07-03T17:44:30.111Z,23.90
2017-07-03T17:46:57.663Z,23.60
2017-07-03T17:49:25.149Z,23.50
2017-07-03T17:51:52.685Z,23.30
2017-07-03T17:54:20.130Z,23.10
2017-07-03T17:56:47.674Z,23.20
2017-07-03T17:59:15.163Z,23.10
2017-07-03T18:01:42.623Z,23.10
2017-07-03T18:04:10.068Z,23.20
2017-07-03T18:06:37.537Z,23.10
2017-07-03T18:09:06.514Z,23.10
2017-07-03T18:11:34.069Z,23.20
2017-07-03T18:14:01.627Z,23.20
2017-07-03T18:16:29.086Z,23.20
2017-07-03T18:18:56.543Z,23.10
2017-07-03T18:21:24.022Z,23.20
2017-07-03T18:23:52.276Z,23.10
2017-07-03T18:26:20.691Z,23.10
2017-07-03T18:28:48.206Z,23.00
2017-07-03T18:31:15.765Z,22.90
2017-07-03T18:33:43.229Z,22.80
2017-07-03T18:36:10.684Z,22.70
2017-07-03T18:38:38.151Z,22.60
2017-07-03T18:41:06.379Z,22.30
2017-07-03T18:43:33.886Z,22.30
2017-07-03T18:46:02.113Z,22.10
2017-07-03T18:48:29.799Z,22.10
2017-07-03T18:50:57.254Z,22.20
2017-07-03T18:53:24.702Z,22.10
2017-07-03T18:55:52.191Z,22.10
2017-07-03T18:58:20.418Z,21.80
2017-07-03T19:00:47.873Z,21.70
2017-07-03T19:03:15.672Z,21.60
2017-07-03T19:05:43.752Z,21.60
2017-07-03T19:08:11.304Z,21.50
2017-07-03T19:10:40.998Z,21.30
2017-07-03T19:13:08.471Z,21.20
2017-07-03T19:15:36.846Z,21.10
2017-07-03T19:18:04.299Z,21.00
2017-07-03T19:20:32.324Z,20.90
2017-07-03T19:22:59.762Z,20.80
2017-07-03T19:25:27.206Z,20.70
2017-07-03T19:27:54.677Z,20.70
2017-07-03T19:30:22.196Z,20.60
2017-07-03T19:32:49.655Z,20.60
2017-07-03T19:35:17.115Z,20.50
2017-07-03T19:37:44.813Z,20.40
2017-07-03T19:40:13.019Z,20.30
2017-07-03T19:42:40.633Z,20.30
2017-07-03T19:45:08.078Z,20.30
2017-07-03T19:47:35.535Z,20.20
2017-07-03T19:50:03.759Z,20.20
2017-07-03T19:52:31.336Z,20.10
2017-07-03T19:54:58.786Z,20.10
2017-07-03T19:57:27.897Z,20.10
2017-07-03T19:59:55.456Z,19.90
2017-07-03T20:02:22.911Z,19.90
2017-07-03T20:04:50.371Z,19.70
2017-07-03T20:07:17.823Z,19.70
2017-07-03T20:09:45.313Z,19.60
2017-07-03T20:12:12.762Z,19.50
2017-07-03T20:14:41.151Z,19.40
2017-07-03T20:17:08.602Z,19.40
2017-07-03T20:19:36.073Z,19.30
2017-07-03T20:22:03.527Z,19.20
2017-07-03T20:24:31.042Z,19.10
2017-07-03T20:26:59.332Z,19.20
2017-07-03T20:29:27.600Z,19.00
2017-07-03T20:31:55.063Z,19.00
2017-07-03T20:34:23.287Z,19.00
2017-07-03T20:36:50.763Z,19.00
2017-07-03T20:39:18.220Z,19.00
2017-07-03T20:41:45.981Z,18.90
2017-07-03T20:44:13.424Z,19.00
2017-07-03T20:46:42.906Z,19.00
2017-07-03T20:49:10.387Z,18.90
2017-07-03T20:51:37.842Z,18.80
2017-07-03T20:54:05.595Z,18.80
2017-07-03T20:56:34.662Z,18.70
2017-07-03T20:59:02.139Z,18.70
2017-07-03T21:01:29.582Z,18.70
2017-07-03T21:03:57.056Z,18.60
2017-07-03T21:06:24.519Z,18.50
2017-07-03T21:08:51.974Z,18.40
2017-07-03T21:11:19.479Z,18.50
2017-07-03T21:13:46.934Z,18.60
2017-07-03T21:16:15.167Z,18.60
2017-07-03T21:18:42.622Z,18.60
2017-07-03T21:21:10.479Z,18.60
2017-07-03T21:23:37.970Z,18.60
2017-07-03T21:26:05.435Z,18.60
2017-07-03T21:28:32.906Z,18.50
2017-07-03T21:31:00.371Z,18.50
2017-07-03T21:33:28.622Z,18.40
2017-07-03T21:35:56.839Z,18.30
2017-07-03T21:38:24.544Z,18.30
2017-07-03T21:40:51.998Z,18.30
2017-07-03T21:43:19.469Z,18.30
2017-07-03T21:45:46.959Z,18.20
2017-07-03T21:48:14.423Z,18.10
2017-07-03T21:50:41.874Z,18.00
2017-07-03T21:53:09.401Z,18.00
2017-07-03T21:55:36.953Z,17.90
2017-07-03T21:58:04.440Z,17.80
2017-07-03T22:02:36.846Z,17.60
2017-07-03T22:05:04.906Z,17.60
2017-07-03T22:07:32.364Z,17.60
2017-07-03T22:09:59.830Z,17.60
2017-07-03T22:12:28.052Z,17.50
2017-07-03T22:14:55.525Z,17.50
2017-07-03T22:17:23.754Z,17.40
2017-07-03T22:19:51.214Z,17.40
2017-07-03T22:22:18.679Z,17.40
2017-07-03T22:24:46.134Z,17.40
2017-07-03T22:27:13.618Z,17.50
2017-07-03T22:29:41.071Z,17.50
2017-07-03T22:32:10.150Z,17.50
2017-07-03T22:34:37.616Z,17.50
2017-07-03T22:37:05.957Z,17.40
2017-07-03T22:39:33.423Z,17.40
2017-07-03T22:42:00.886Z,17.40
2017-07-03T22:44:28.340Z,17.20
2017-07-03T22:46:56.636Z,17.20
2017-07-03T22:49:24.400Z,17.10
2017-07-03T22:51:51.869Z,17.00
2017-07-03T22:54:19.374Z,16.90
2017-07-03T22:56:46.826Z,16.80
2017-07-03T22:59:14.300Z,16.70
2017-07-03T23:01:41.753Z,16.70
2017-07-03T23:04:09.226Z,16.70
2017-07-03T23:06:36.687Z,16.60
2017-07-03T23:09:04.150Z,16.60
2017-07-03T23:11:31.605Z,16.50
2017-07-03T23:14:01.070Z,16.50
2017-07-03T23:16:31.474Z,16.50
2017-07-03T23:19:00.857Z,16.40
2017-07-03T23:21:29.610Z,16.20
2017-07-03T23:24:00.374Z,16.20
2017-07-03T23:26:31.268Z,16.10
2017-07-03T23:28:58.722Z,16.10
2017-07-03T23:31:26.335Z,16.10
2017-07-03T23:33:54.638Z,16.00
2017-07-03T23:36:22.107Z,15.90
2017-07-03T23:38:54.434Z,15.90
2017-07-03T23:41:26.054Z,15.80
2017-07-03T23:43:54.215Z,15.80
2017-07-03T23:46:21.669Z,15.80
2017-07-03T23:48:53.555Z,15.80
2017-07-03T23:51:22.723Z,15.80
2017-07-03T23:53:50.209Z,15.80
2017-07-03T23:56:17.666Z,15.80
2017-07-03T23:58:45.135Z,15.90
